עמוד ראשי
METAR-TAF:

METAR-TAF

שדות תעופה :

Mazatlán, מקסיקו

קו רוחב: 23-10N, קו אורך: 106-16W, גובה: 10מטר

תצפית מזג אוויר נוכחית

הדו"ח נערך לפני 39דקות, בשעה 07:41 UTC
רוח 2קשר מכיוון מערב/צפון-מערב
טמפרטורת 26 צלסיוס
לחות 84%
לחץ 1008 hPa
ראות: 16.1קילומטר
עננים פזורים בגובה 1800רגל
עננים בינוניים בגובה 8000רגל

METAR: MMMZ 160741Z 30002KT 10SM SCT018 BKN080 26/23 A2978 RMK 8/530

זמן: 02:20 (08:20 UTC)

תחזית

הדו"ח נערך לפני 3 שעות ו 27דקות, בשעה 04:53 UTC
תחזית בתוקף מ 16 ב 06 UTC עד 17 ב 06 UTC
רוח קשר מכיוון צפון
ראות: 10קילומטר
עננים בינוניים בגובה 1500רגל
מ 16 ב 1200UTC
רוח קשר מכיוון צפון
ראות: 9.7קילומטר
עננים בינוניים בגובה 1000רגל
אובך
מ 16 ב 1600UTC
רוח 5קשר מכיוון דרום/דרום-מערב
ראות: 10קילומטר
שמיים נקיים
יעשה מ
16 ב 20 UTC עד 16 ב 21 UTC
רוח 12קשר מכיוון מערב/דרום-מערב
מ 17 ב 0300UTC
רוח קשר מכיוון צפון
ראות: 10קילומטר
עננים פזורים בגובה 1500רגל

TAF: MMMZ 160453Z 1606/1706 00000KT P6SM BKN015 TX32/1619Z TN24/1612Z FM161200 00000KT 6SM HZ BKN010 FM161600 20005KT P6SM SKC BECMG 1620/1621 24012KT FM170300 00000KT P6SM SCT015

תצפיות ותחזיות מזג אוויר לגבי יותר מ- 4,000 שדות תעופה ברחבי העולם. דוחות METAR ו- TAF.

התחנות הזמינות מסומנות בנקודות צהובות ואדומות על גבי המפה.

העבר את העכבר לנקודה הצבעונית על מנת לראות את שם התחנה.

לאחר מכן, לחץ כדי לראות את תוכן ואת תחזיות מזג האוויר.

כדי לשנות את המפה: לחץ על הכפתורים הירוקים עם הפלוס השחור כדי להתקרב; על הכפתור הירוק עם המקף כדי להתרחק; או בחיצים הירוקים למפות סמוכות.


METAR-TAF: